aviador You're here:

ZWWW Decoded Metar

URUMQI in CHINA
Report Time2017-08-23 02:00:00
UTC Time2017-08-23 02:17:14
Flight Rules vfr VFR
WindVRB at 2 kt
Visibility9999 m
Phenomena:N/A
Clouds:N/A
Expected CloudBase > 7,200 ft AGL from Temp-Dew spread
CeilingNone
Temp21°C (ISA +10)
Dew Point03°C (31% RH)
AAT18.8°C
QNH1020 hPa
Density Alt3,212 ft
Elevation2,146 ft
Report Wrong Elevation
Raw Report
ZWWW 230200Z VRB01MPS CAVOK 21/03 Q1020 NOSIG=

Extra information for ZWWW:More info

Metar Taf Metar & Taf Last 4 Metars F.Rules Stats Wind Profile Meteogram Temp Stats Airport Information Weather charts Add Link Nearby VenuesMetar ALERT Operation Metar Decoded Social comments